sensor_id;sensor_type;location;lat;lon;timestamp;temperature;humidity
364;DHT22;173;48.718;9.274;2022-12-18T00:02:31;-7.80;99.50
364;DHT22;173;48.718;9.274;2022-12-18T00:05:03;-7.90;99.50
364;DHT22;173;48.718;9.274;2022-12-18T00:07:37;-7.80;99.50
364;DHT22;173;48.718;9.274;2022-12-18T00:10:07;-7.60;99.50
364;DHT22;173;48.718;9.274;2022-12-18T00:12:39;-7.60;99.50
364;DHT22;173;48.718;9.274;2022-12-18T00:15:10;-7.60;99.50
364;DHT22;173;48.718;9.274;2022-12-18T00:17:41;-7.70;99.50
364;DHT22;173;48.718;9.274;2022-12-18T00:20:12;-7.80;99.50
364;DHT22;173;48.718;9.274;2022-12-18T00:22:46;-7.80;99.50
364;DHT22;173;48.718;9.274;2022-12-18T00:25:18;-7.90;99.50
364;DHT22;173;48.718;9.274;2022-12-18T00:27:50;-7.90;99.50
364;DHT22;173;48.718;9.274;2022-12-18T00:30:22;-7.80;99.50
364;DHT22;173;48.718;9.274;2022-12-18T00:32:54;-7.70;99.50
364;DHT22;173;48.718;9.274;2022-12-18T00:35:27;-7.80;99.50
364;DHT22;173;48.718;9.274;2022-12-18T00:37:59;-7.80;99.50
364;DHT22;173;48.718;9.274;2022-12-18T00:40:33;-7.80;99.50
364;DHT22;173;48.718;9.274;2022-12-18T00:43:06;-7.80;99.50
364;DHT22;173;48.718;9.274;2022-12-18T00:45:39;-7.90;99.50
364;DHT22;173;48.718;9.274;2022-12-18T00:48:12;-8.00;99.50
364;DHT22;173;48.718;9.274;2022-12-18T00:50:44;-8.00;99.50
364;DHT22;173;48.718;9.274;2022-12-18T00:53:17;-8.10;99.50
364;DHT22;173;48.718;9.274;2022-12-18T00:55:50;-8.00;99.50
364;DHT22;173;48.718;9.274;2022-12-18T00:58:22;-7.90;99.50
364;DHT22;173;48.718;9.274;2022-12-18T01:00:54;-7.70;99.50
364;DHT22;173;48.718;9.274;2022-12-18T01:03:27;-7.70;99.50
364;DHT22;173;48.718;9.274;2022-12-18T01:06:05;-7.70;99.50
364;DHT22;173;48.718;9.274;2022-12-18T01:08:40;-7.80;99.50
364;DHT22;173;48.718;9.274;2022-12-18T01:11:16;-7.80;99.50
364;DHT22;173;48.718;9.274;2022-12-18T01:13:48;-7.80;99.50
364;DHT22;173;48.718;9.274;2022-12-18T01:16:21;-7.80;99.50
364;DHT22;173;48.718;9.274;2022-12-18T01:18:54;-7.80;99.50
364;DHT22;173;48.718;9.274;2022-12-18T01:21:27;-7.90;99.50
364;DHT22;173;48.718;9.274;2022-12-18T01:24:01;-7.90;99.50
364;DHT22;173;48.718;9.274;2022-12-18T01:26:34;-8.00;99.50
364;DHT22;173;48.718;9.274;2022-12-18T01:29:06;-8.00;99.50
364;DHT22;173;48.718;9.274;2022-12-18T01:31:38;-8.00;99.50
364;DHT22;173;48.718;9.274;2022-12-18T01:36:41;-8.00;99.50
364;DHT22;173;48.718;9.274;2022-12-18T01:39:14;-8.10;99.50
364;DHT22;173;48.718;9.274;2022-12-18T01:41:47;-8.20;99.50
364;DHT22;173;48.718;9.274;2022-12-18T01:45:00;-8.30;99.50
364;DHT22;173;48.718;9.274;2022-12-18T01:47:45;-8.30;99.50
364;DHT22;173;48.718;9.274;2022-12-18T01:50:37;-8.30;99.50
364;DHT22;173;48.718;9.274;2022-12-18T01:57:23;-8.20;99.50
364;DHT22;173;48.718;9.274;2022-12-18T01:59:59;-8.20;99.50
364;DHT22;173;48.718;9.274;2022-12-18T02:02:32;-8.20;99.50
364;DHT22;173;48.718;9.274;2022-12-18T02:05:05;-8.30;99.50
364;DHT22;173;48.718;9.274;2022-12-18T02:08:11;-8.20;99.50
364;DHT22;173;48.718;9.274;2022-12-18T02:14:19;-8.30;99.50
364;DHT22;173;48.718;9.274;2022-12-18T02:17:14;-8.50;99.50
364;DHT22;173;48.718;9.274;2022-12-18T02:20:12;-8.50;99.50
364;DHT22;173;48.718;9.274;2022-12-18T02:22:58;-8.40;99.50
364;DHT22;173;48.718;9.274;2022-12-18T02:26:15;-8.40;99.50
364;DHT22;173;48.718;9.274;2022-12-18T02:29:03;-8.50;99.30
364;DHT22;173;48.718;9.274;2022-12-18T02:31:54;-8.50;99.50
364;DHT22;173;48.718;9.274;2022-12-18T02:34:30;-8.50;99.50
364;DHT22;173;48.718;9.274;2022-12-18T02:37:06;-8.60;99.50
364;DHT22;173;48.718;9.274;2022-12-18T02:39:42;-8.60;99.50
364;DHT22;173;48.718;9.274;2022-12-18T02:42:16;-8.50;99.50
364;DHT22;173;48.718;9.274;2022-12-18T02:44:51;-8.40;99.50
364;DHT22;173;48.718;9.274;2022-12-18T02:50:10;-8.20;99.50
364;DHT22;173;48.718;9.274;2022-12-18T02:55:52;-8.30;99.50
364;DHT22;173;48.718;9.274;2022-12-18T02:58:53;-8.40;99.50
364;DHT22;173;48.718;9.274;2022-12-18T03:04:47;-8.40;99.50
364;DHT22;173;48.718;9.274;2022-12-18T03:07:35;-8.30;99.50
364;DHT22;173;48.718;9.274;2022-12-18T03:10:13;-8.50;97.80
364;DHT22;173;48.718;9.274;2022-12-18T03:12:51;-8.70;97.20
364;DHT22;173;48.718;9.274;2022-12-18T03:15:25;-8.80;97.50
364;DHT22;173;48.718;9.274;2022-12-18T03:18:03;-8.80;97.90
364;DHT22;173;48.718;9.274;2022-12-18T03:20:39;-8.80;98.20
364;DHT22;173;48.718;9.274;2022-12-18T03:23:19;-8.90;98.30
364;DHT22;173;48.718;9.274;2022-12-18T03:25:56;-8.90;98.80
364;DHT22;173;48.718;9.274;2022-12-18T03:28:30;-8.80;99.20
364;DHT22;173;48.718;9.274;2022-12-18T03:31:07;-8.80;99.50
364;DHT22;173;48.718;9.274;2022-12-18T03:33:52;-8.70;99.50
364;DHT22;173;48.718;9.274;2022-12-18T03:36:25;-8.60;99.50
364;DHT22;173;48.718;9.274;2022-12-18T03:39:00;-8.60;99.40
364;DHT22;173;48.718;9.274;2022-12-18T03:41:55;-8.50;99.20
364;DHT22;173;48.718;9.274;2022-12-18T03:44:35;-8.40;98.80
364;DHT22;173;48.718;9.274;2022-12-18T03:47:33;-8.50;97.90
364;DHT22;173;48.718;9.274;2022-12-18T03:53:17;-8.60;97.50
364;DHT22;173;48.718;9.274;2022-12-18T03:55:49;-8.80;97.70
364;DHT22;173;48.718;9.274;2022-12-18T03:58:24;-9.00;97.90
364;DHT22;173;48.718;9.274;2022-12-18T04:00:59;-9.30;98.80
364;DHT22;173;48.718;9.274;2022-12-18T04:03:33;-9.30;98.80
364;DHT22;173;48.718;9.274;2022-12-18T04:06:06;-9.30;99.20
364;DHT22;173;48.718;9.274;2022-12-18T04:08:39;-9.20;99.50
364;DHT22;173;48.718;9.274;2022-12-18T04:11:11;-9.10;99.50
364;DHT22;173;48.718;9.274;2022-12-18T04:13:44;-9.10;99.50
364;DHT22;173;48.718;9.274;2022-12-18T04:16:16;-9.30;99.10
364;DHT22;173;48.718;9.274;2022-12-18T04:18:48;-9.30;99.00
364;DHT22;173;48.718;9.274;2022-12-18T04:21:20;-9.50;98.90
364;DHT22;173;48.718;9.274;2022-12-18T04:23:52;-9.50;99.30
364;DHT22;173;48.718;9.274;2022-12-18T04:26:24;-9.50;99.40
364;DHT22;173;48.718;9.274;2022-12-18T04:28:56;-9.60;99.30
364;DHT22;173;48.718;9.274;2022-12-18T04:31:28;-9.60;99.40
364;DHT22;173;48.718;9.274;2022-12-18T04:34:00;-9.60;99.50
364;DHT22;173;48.718;9.274;2022-12-18T04:36:32;-9.50;99.50
364;DHT22;173;48.718;9.274;2022-12-18T04:39:04;-9.50;99.20
364;DHT22;173;48.718;9.274;2022-12-18T04:41:36;-9.60;98.60
364;DHT22;173;48.718;9.274;2022-12-18T04:44:09;-9.80;98.00
364;DHT22;173;48.718;9.274;2022-12-18T04:46:41;-9.80;98.10
364;DHT22;173;48.718;9.274;2022-12-18T04:49:13;-9.80;98.30
364;DHT22;173;48.718;9.274;2022-12-18T04:51:45;-9.70;98.40
364;DHT22;173;48.718;9.274;2022-12-18T04:54:16;-9.70;98.00
364;DHT22;173;48.718;9.274;2022-12-18T04:56:48;-9.70;97.70
364;DHT22;173;48.718;9.274;2022-12-18T04:59:19;-9.70;97.70
364;DHT22;173;48.718;9.274;2022-12-18T05:01:51;-9.60;97.80
364;DHT22;173;48.718;9.274;2022-12-18T05:04:24;-9.60;97.10
364;DHT22;173;48.718;9.274;2022-12-18T05:06:56;-9.70;96.60
364;DHT22;173;48.718;9.274;2022-12-18T05:09:28;-9.80;96.40
364;DHT22;173;48.718;9.274;2022-12-18T05:12:00;-9.90;96.30
364;DHT22;173;48.718;9.274;2022-12-18T05:14:32;-10.00;96.50
364;DHT22;173;48.718;9.274;2022-12-18T05:17:04;-10.00;96.90
364;DHT22;173;48.718;9.274;2022-12-18T05:19:34;-10.00;97.00
364;DHT22;173;48.718;9.274;2022-12-18T05:22:09;-10.10;97.00
364;DHT22;173;48.718;9.274;2022-12-18T05:24:41;-10.10;96.90
364;DHT22;173;48.718;9.274;2022-12-18T05:27:13;-10.20;96.60
364;DHT22;173;48.718;9.274;2022-12-18T05:29:47;-10.10;97.10
364;DHT22;173;48.718;9.274;2022-12-18T05:32:19;-9.90;97.20
364;DHT22;173;48.718;9.274;2022-12-18T05:34:51;-10.00;96.40
364;DHT22;173;48.718;9.274;2022-12-18T05:37:24;-10.10;95.90
364;DHT22;173;48.718;9.274;2022-12-18T05:39:56;-10.10;96.40
364;DHT22;173;48.718;9.274;2022-12-18T05:42:28;-10.10;96.50
364;DHT22;173;48.718;9.274;2022-12-18T05:44:59;-10.10;96.30
364;DHT22;173;48.718;9.274;2022-12-18T05:47:30;-10.20;95.90
364;DHT22;173;48.718;9.274;2022-12-18T05:50:03;-10.30;96.00
364;DHT22;173;48.718;9.274;2022-12-18T05:52:35;-10.10;96.50
364;DHT22;173;48.718;9.274;2022-12-18T05:55:07;-10.00;96.90
364;DHT22;173;48.718;9.274;2022-12-18T05:57:39;-10.00;96.80
364;DHT22;173;48.718;9.274;2022-12-18T06:00:12;-10.00;96.80
364;DHT22;173;48.718;9.274;2022-12-18T06:02:46;-10.00;96.90
364;DHT22;173;48.718;9.274;2022-12-18T06:05:19;-10.00;97.20
364;DHT22;173;48.718;9.274;2022-12-18T06:07:51;-9.90;97.30
364;DHT22;173;48.718;9.274;2022-12-18T06:10:23;-9.70;97.30
364;DHT22;173;48.718;9.274;2022-12-18T06:12:55;-9.60;96.80
364;DHT22;173;48.718;9.274;2022-12-18T06:15:27;-9.70;95.80
364;DHT22;173;48.718;9.274;2022-12-18T06:18:00;-9.90;94.70
364;DHT22;173;48.718;9.274;2022-12-18T06:20:32;-10.00;94.60
364;DHT22;173;48.718;9.274;2022-12-18T06:23:07;-10.00;95.30
364;DHT22;173;48.718;9.274;2022-12-18T06:25:41;-9.90;95.70
364;DHT22;173;48.718;9.274;2022-12-18T06:28:11;-9.90;96.20
364;DHT22;173;48.718;9.274;2022-12-18T06:30:47;-9.90;95.90
364;DHT22;173;48.718;9.274;2022-12-18T06:33:20;-9.90;95.60
364;DHT22;173;48.718;9.274;2022-12-18T06:35:54;-9.90;95.50
364;DHT22;173;48.718;9.274;2022-12-18T06:38:33;-9.90;95.60
364;DHT22;173;48.718;9.274;2022-12-18T06:41:09;-9.90;95.10
364;DHT22;173;48.718;9.274;2022-12-18T06:43:44;-9.90;95.40
364;DHT22;173;48.718;9.274;2022-12-18T06:46:16;-9.90;95.50
364;DHT22;173;48.718;9.274;2022-12-18T06:48:49;-9.80;95.80
364;DHT22;173;48.718;9.274;2022-12-18T06:51:22;-9.80;95.60
364;DHT22;173;48.718;9.274;2022-12-18T06:53:54;-9.90;95.50
364;DHT22;173;48.718;9.274;2022-12-18T06:56:26;-10.00;95.70
364;DHT22;173;48.718;9.274;2022-12-18T06:58:58;-10.20;96.00
364;DHT22;173;48.718;9.274;2022-12-18T07:01:30;-10.20;96.60
364;DHT22;173;48.718;9.274;2022-12-18T07:04:02;-10.10;96.80
364;DHT22;173;48.718;9.274;2022-12-18T07:06:34;-10.10;96.80
364;DHT22;173;48.718;9.274;2022-12-18T07:09:06;-9.90;97.00
364;DHT22;173;48.718;9.274;2022-12-18T07:11:38;-9.90;96.60
364;DHT22;173;48.718;9.274;2022-12-18T07:14:10;-9.90;96.40
364;DHT22;173;48.718;9.274;2022-12-18T07:16:42;-9.90;96.40
364;DHT22;173;48.718;9.274;2022-12-18T07:19:14;-9.80;96.30
364;DHT22;173;48.718;9.274;2022-12-18T07:21:46;-9.80;96.10
364;DHT22;173;48.718;9.274;2022-12-18T07:24:19;-9.80;96.10
364;DHT22;173;48.718;9.274;2022-12-18T07:26:51;-9.80;96.10
364;DHT22;173;48.718;9.274;2022-12-18T07:29:24;-9.70;96.40
364;DHT22;173;48.718;9.274;2022-12-18T07:31:56;-9.70;96.20
364;DHT22;173;48.718;9.274;2022-12-18T07:34:28;-9.70;96.10
364;DHT22;173;48.718;9.274;2022-12-18T07:37:00;-9.70;96.10
364;DHT22;173;48.718;9.274;2022-12-18T07:39:32;-9.70;95.60
364;DHT22;173;48.718;9.274;2022-12-18T07:42:02;-9.70;95.30
364;DHT22;173;48.718;9.274;2022-12-18T07:44:52;-9.60;95.10
364;DHT22;173;48.718;9.274;2022-12-18T07:47:24;-9.60;94.80
364;DHT22;173;48.718;9.274;2022-12-18T07:52:32;-9.70;94.10
364;DHT22;173;48.718;9.274;2022-12-18T07:55:03;-9.80;94.10
364;DHT22;173;48.718;9.274;2022-12-18T07:57:35;-9.70;94.50
364;DHT22;173;48.718;9.274;2022-12-18T08:00:08;-9.60;94.50
364;DHT22;173;48.718;9.274;2022-12-18T08:02:41;-9.60;94.60
364;DHT22;173;48.718;9.274;2022-12-18T08:05:13;-9.40;95.00
364;DHT22;173;48.718;9.274;2022-12-18T08:07:45;-9.20;95.30
364;DHT22;173;48.718;9.274;2022-12-18T08:10:18;-9.10;95.50
364;DHT22;173;48.718;9.274;2022-12-18T08:12:51;-8.90;95.20
364;DHT22;173;48.718;9.274;2022-12-18T08:15:24;-8.90;94.10
364;DHT22;173;48.718;9.274;2022-12-18T08:17:57;-9.00;93.30
364;DHT22;173;48.718;9.274;2022-12-18T08:20:29;-9.20;92.80
364;DHT22;173;48.718;9.274;2022-12-18T08:23:02;-9.30;92.90
364;DHT22;173;48.718;9.274;2022-12-18T08:25:35;-9.40;93.30
364;DHT22;173;48.718;9.274;2022-12-18T08:28:07;-9.30;93.90
364;DHT22;173;48.718;9.274;2022-12-18T08:30:39;-9.40;93.80
364;DHT22;173;48.718;9.274;2022-12-18T08:33:11;-9.30;93.80
364;DHT22;173;48.718;9.274;2022-12-18T08:35:44;-9.30;94.50
364;DHT22;173;48.718;9.274;2022-12-18T08:38:16;-9.10;95.10
364;DHT22;173;48.718;9.274;2022-12-18T08:40:46;-8.80;94.90
364;DHT22;173;48.718;9.274;2022-12-18T08:43:18;-8.80;94.90
364;DHT22;173;48.718;9.274;2022-12-18T08:46:08;-8.80;94.50
364;DHT22;173;48.718;9.274;2022-12-18T08:48:40;-8.70;94.80
364;DHT22;173;48.718;9.274;2022-12-18T08:51:13;-8.60;94.80
364;DHT22;173;48.718;9.274;2022-12-18T08:53:58;-8.40;94.70
364;DHT22;173;48.718;9.274;2022-12-18T08:56:32;-8.20;94.60
364;DHT22;173;48.718;9.274;2022-12-18T08:59:04;-8.20;93.80
364;DHT22;173;48.718;9.274;2022-12-18T09:01:38;-8.10;94.10
364;DHT22;173;48.718;9.274;2022-12-18T09:04:11;-7.90;94.40
364;DHT22;173;48.718;9.274;2022-12-18T09:06:43;-7.80;94.40
364;DHT22;173;48.718;9.274;2022-12-18T09:09:16;-7.80;94.00
364;DHT22;173;48.718;9.274;2022-12-18T09:11:48;-7.80;93.90
364;DHT22;173;48.718;9.274;2022-12-18T09:14:20;-7.60;94.00
364;DHT22;173;48.718;9.274;2022-12-18T09:16:52;-7.60;93.90
364;DHT22;173;48.718;9.274;2022-12-18T09:19:22;-7.50;93.80
364;DHT22;173;48.718;9.274;2022-12-18T09:21:54;-7.30;94.20
364;DHT22;173;48.718;9.274;2022-12-18T09:24:28;-7.20;94.30
364;DHT22;173;48.718;9.274;2022-12-18T09:27:00;-7.10;94.50
364;DHT22;173;48.718;9.274;2022-12-18T09:29:32;-7.00;95.00
364;DHT22;173;48.718;9.274;2022-12-18T09:32:05;-6.70;95.40
364;DHT22;173;48.718;9.274;2022-12-18T09:34:37;-6.50;95.20
364;DHT22;173;48.718;9.274;2022-12-18T09:37:10;-6.60;94.50
364;DHT22;173;48.718;9.274;2022-12-18T09:39:42;-6.50;95.00
364;DHT22;173;48.718;9.274;2022-12-18T09:42:21;-6.50;94.80
364;DHT22;173;48.718;9.274;2022-12-18T09:44:55;-6.40;94.20
364;DHT22;173;48.718;9.274;2022-12-18T09:47:30;-6.40;93.50
364;DHT22;173;48.718;9.274;2022-12-18T09:50:14;-6.30;93.50
364;DHT22;173;48.718;9.274;2022-12-18T09:52:59;-6.00;93.50
364;DHT22;173;48.718;9.274;2022-12-18T09:55:45;-5.70;93.10
364;DHT22;173;48.718;9.274;2022-12-18T09:58:30;-5.40;92.40
364;DHT22;173;48.718;9.274;2022-12-18T10:01:09;-5.30;91.30
364;DHT22;173;48.718;9.274;2022-12-18T10:03:41;-4.90;91.80
364;DHT22;173;48.718;9.274;2022-12-18T10:06:18;-4.70;90.60
364;DHT22;173;48.718;9.274;2022-12-18T10:09:04;-4.50;90.40
364;DHT22;173;48.718;9.274;2022-12-18T10:24:55;-3.30;88.30
364;DHT22;173;48.718;9.274;2022-12-18T10:27:30;-3.10;87.90
364;DHT22;173;48.718;9.274;2022-12-18T10:30:04;-3.00;87.40
364;DHT22;173;48.718;9.274;2022-12-18T10:32:41;-2.70;87.80
364;DHT22;173;48.718;9.274;2022-12-18T10:35:24;-2.40;87.30
364;DHT22;173;48.718;9.274;2022-12-18T10:41:04;-2.00;86.10
364;DHT22;173;48.718;9.274;2022-12-18T10:43:41;-1.50;86.30
364;DHT22;173;48.718;9.274;2022-12-18T10:46:20;-1.00;84.30
364;DHT22;173;48.718;9.274;2022-12-18T10:48:54;-0.70;83.00
364;DHT22;173;48.718;9.274;2022-12-18T10:51:29;-0.30;82.50
364;DHT22;173;48.718;9.274;2022-12-18T10:54:04;-0.60;79.90
364;DHT22;173;48.718;9.274;2022-12-18T10:56:39;-0.80;81.90
364;DHT22;173;48.718;9.274;2022-12-18T10:59:14;-1.00;82.40
364;DHT22;173;48.718;9.274;2022-12-18T11:01:52;-0.60;83.60
364;DHT22;173;48.718;9.274;2022-12-18T11:04:30;-0.20;83.60
364;DHT22;173;48.718;9.274;2022-12-18T11:07:08;0.10;81.90
364;DHT22;173;48.718;9.274;2022-12-18T11:09:42;-0.30;82.10
364;DHT22;173;48.718;9.274;2022-12-18T11:12:19;0.20;81.90
364;DHT22;173;48.718;9.274;2022-12-18T11:14:53;0.70;80.40
364;DHT22;173;48.718;9.274;2022-12-18T11:17:33;1.20;80.40
364;DHT22;173;48.718;9.274;2022-12-18T11:23:05;1.80;78.00
364;DHT22;173;48.718;9.274;2022-12-18T11:25:32;2.10;77.30
364;DHT22;173;48.718;9.274;2022-12-18T11:28:27;2.10;74.30
364;DHT22;173;48.718;9.274;2022-12-18T11:34:02;2.50;75.50
364;DHT22;173;48.718;9.274;2022-12-18T11:36:46;2.70;74.20
364;DHT22;173;48.718;9.274;2022-12-18T11:45:16;2.70;71.20
364;DHT22;173;48.718;9.274;2022-12-18T11:53:31;3.10;73.80
364;DHT22;173;48.718;9.274;2022-12-18T12:01:53;3.50;72.20
364;DHT22;173;48.718;9.274;2022-12-18T12:07:30;3.30;72.00
364;DHT22;173;48.718;9.274;2022-12-18T12:16:31;3.50;72.50
364;DHT22;173;48.718;9.274;2022-12-18T12:19:25;3.20;72.60
364;DHT22;173;48.718;9.274;2022-12-18T12:22:11;2.90;72.90
364;DHT22;173;48.718;9.274;2022-12-18T12:27:43;2.70;74.80
364;DHT22;173;48.718;9.274;2022-12-18T12:39:05;2.70;76.50
364;DHT22;173;48.718;9.274;2022-12-18T12:41:40;2.60;74.60
364;DHT22;173;48.718;9.274;2022-12-18T12:44:46;2.70;76.00
364;DHT22;173;48.718;9.274;2022-12-18T12:47:23;2.60;76.20
364;DHT22;173;48.718;9.274;2022-12-18T12:50:02;2.60;75.60
364;DHT22;173;48.718;9.274;2022-12-18T12:52:42;2.30;75.80
364;DHT22;173;48.718;9.274;2022-12-18T12:55:24;2.10;77.20
364;DHT22;173;48.718;9.274;2022-12-18T13:00:52;1.80;77.60
364;DHT22;173;48.718;9.274;2022-12-18T13:06:32;1.80;79.20
364;DHT22;173;48.718;9.274;2022-12-18T13:09:19;1.70;78.30
364;DHT22;173;48.718;9.274;2022-12-18T13:11:50;1.30;79.70
364;DHT22;173;48.718;9.274;2022-12-18T13:14:41;1.30;80.50
364;DHT22;173;48.718;9.274;2022-12-18T13:17:28;1.30;80.70
364;DHT22;173;48.718;9.274;2022-12-18T13:20:11;1.40;81.40
364;DHT22;173;48.718;9.274;2022-12-18T13:22:48;1.30;81.60
364;DHT22;173;48.718;9.274;2022-12-18T13:25:34;1.20;81.70
364;DHT22;173;48.718;9.274;2022-12-18T13:28:15;1.10;82.40
364;DHT22;173;48.718;9.274;2022-12-18T13:30:51;1.20;82.10
364;DHT22;173;48.718;9.274;2022-12-18T13:36:28;0.90;82.60
364;DHT22;173;48.718;9.274;2022-12-18T13:39:22;0.90;82.90
364;DHT22;173;48.718;9.274;2022-12-18T13:45:42;0.70;83.40
364;DHT22;173;48.718;9.274;2022-12-18T13:48:04;0.70;84.00
364;DHT22;173;48.718;9.274;2022-12-18T13:50:40;0.70;84.30
364;DHT22;173;48.718;9.274;2022-12-18T13:53:18;0.70;84.80
364;DHT22;173;48.718;9.274;2022-12-18T13:55:56;0.50;84.60
364;DHT22;173;48.718;9.274;2022-12-18T13:58:30;0.40;85.00
364;DHT22;173;48.718;9.274;2022-12-18T14:01:04;0.20;85.60
364;DHT22;173;48.718;9.274;2022-12-18T14:03:40;0.10;86.10
364;DHT22;173;48.718;9.274;2022-12-18T14:06:14;0.10;86.90
364;DHT22;173;48.718;9.274;2022-12-18T14:08:49;-0.20;87.20
364;DHT22;173;48.718;9.274;2022-12-18T14:11:24;-0.50;88.00
364;DHT22;173;48.718;9.274;2022-12-18T14:13:58;-0.60;88.90
364;DHT22;173;48.718;9.274;2022-12-18T14:16:33;-0.60;88.60
364;DHT22;173;48.718;9.274;2022-12-18T14:19:17;-0.50;88.90
364;DHT22;173;48.718;9.274;2022-12-18T14:21:50;-0.50;88.80
364;DHT22;173;48.718;9.274;2022-12-18T14:24:24;-0.50;88.60
364;DHT22;173;48.718;9.274;2022-12-18T14:27:11;-0.30;88.50
364;DHT22;173;48.718;9.274;2022-12-18T14:29:45;-0.40;88.20
364;DHT22;173;48.718;9.274;2022-12-18T14:32:19;-0.40;88.20
364;DHT22;173;48.718;9.274;2022-12-18T14:34:53;-0.50;88.10
364;DHT22;173;48.718;9.274;2022-12-18T14:37:28;-0.60;88.40
364;DHT22;173;48.718;9.274;2022-12-18T14:40:05;-0.80;88.90
364;DHT22;173;48.718;9.274;2022-12-18T14:42:39;-0.80;89.10
364;DHT22;173;48.718;9.274;2022-12-18T14:48:21;-0.90;89.50
364;DHT22;173;48.718;9.274;2022-12-18T14:51:05;-0.90;89.60
364;DHT22;173;48.718;9.274;2022-12-18T14:53:48;-0.90;89.80
364;DHT22;173;48.718;9.274;2022-12-18T14:56:37;-1.00;89.90
364;DHT22;173;48.718;9.274;2022-12-18T14:59:19;-1.10;89.90
364;DHT22;173;48.718;9.274;2022-12-18T15:02:01;-1.10;90.00
364;DHT22;173;48.718;9.274;2022-12-18T15:05:17;-1.20;90.10
364;DHT22;173;48.718;9.274;2022-12-18T15:07:56;-1.20;90.40
364;DHT22;173;48.718;9.274;2022-12-18T15:10:32;-1.40;91.00
364;DHT22;173;48.718;9.274;2022-12-18T15:13:09;-1.50;91.40
364;DHT22;173;48.718;9.274;2022-12-18T15:15:44;-1.60;91.80
364;DHT22;173;48.718;9.274;2022-12-18T15:18:19;-1.70;92.10
364;DHT22;173;48.718;9.274;2022-12-18T15:20:59;-1.90;92.90
364;DHT22;173;48.718;9.274;2022-12-18T15:23:51;-1.90;92.90
364;DHT22;173;48.718;9.274;2022-12-18T15:26:24;-1.90;93.10
364;DHT22;173;48.718;9.274;2022-12-18T15:29:15;-1.90;93.30
364;DHT22;173;48.718;9.274;2022-12-18T15:31:32;-1.90;93.30
364;DHT22;173;48.718;9.274;2022-12-18T15:34:21;-2.00;93.30
364;DHT22;173;48.718;9.274;2022-12-18T15:36:54;-1.90;93.40
364;DHT22;173;48.718;9.274;2022-12-18T15:39:26;-2.00;93.70
364;DHT22;173;48.718;9.274;2022-12-18T15:41:58;-2.10;93.90
364;DHT22;173;48.718;9.274;2022-12-18T15:44:49;-2.10;94.20
364;DHT22;173;48.718;9.274;2022-12-18T15:47:21;-2.20;94.30
364;DHT22;173;48.718;9.274;2022-12-18T15:49:54;-2.20;94.70
364;DHT22;173;48.718;9.274;2022-12-18T15:52:25;-2.30;95.10
364;DHT22;173;48.718;9.274;2022-12-18T15:54:57;-2.40;95.40
364;DHT22;173;48.718;9.274;2022-12-18T15:57:47;-2.40;95.90
364;DHT22;173;48.718;9.274;2022-12-18T16:00:19;-2.50;96.00
364;DHT22;173;48.718;9.274;2022-12-18T16:02:51;-2.50;96.20
364;DHT22;173;48.718;9.274;2022-12-18T16:05:26;-2.50;96.10
364;DHT22;173;48.718;9.274;2022-12-18T16:07:59;-2.40;95.80
364;DHT22;173;48.718;9.274;2022-12-18T16:10:31;-2.40;96.00
364;DHT22;173;48.718;9.274;2022-12-18T16:13:03;-2.40;95.90
364;DHT22;173;48.718;9.274;2022-12-18T16:15:38;-2.30;95.80
364;DHT22;173;48.718;9.274;2022-12-18T16:18:10;-2.40;95.50
364;DHT22;173;48.718;9.274;2022-12-18T16:20:42;-2.40;95.60
364;DHT22;173;48.718;9.274;2022-12-18T16:23:14;-2.40;95.70
364;DHT22;173;48.718;9.274;2022-12-18T16:25:46;-2.40;96.00
364;DHT22;173;48.718;9.274;2022-12-18T16:28:19;-2.40;96.10
364;DHT22;173;48.718;9.274;2022-12-18T16:30:49;-2.50;96.20
364;DHT22;173;48.718;9.274;2022-12-18T16:33:21;-2.40;96.30
364;DHT22;173;48.718;9.274;2022-12-18T16:35:54;-2.50;96.40
364;DHT22;173;48.718;9.274;2022-12-18T16:38:26;-2.50;96.60
364;DHT22;173;48.718;9.274;2022-12-18T16:40:58;-2.50;96.90
364;DHT22;173;48.718;9.274;2022-12-18T16:43:46;-2.50;96.90
364;DHT22;173;48.718;9.274;2022-12-18T16:48:59;-2.60;97.00
364;DHT22;173;48.718;9.274;2022-12-18T16:51:33;-2.60;97.10
364;DHT22;173;48.718;9.274;2022-12-18T16:54:05;-2.60;97.40
364;DHT22;173;48.718;9.274;2022-12-18T16:56:40;-2.60;97.40
364;DHT22;173;48.718;9.274;2022-12-18T16:59:20;-2.60;97.50
364;DHT22;173;48.718;9.274;2022-12-18T17:01:53;-2.60;97.50
364;DHT22;173;48.718;9.274;2022-12-18T17:04:26;-2.60;97.60
364;DHT22;173;48.718;9.274;2022-12-18T17:06:59;-2.60;97.90
364;DHT22;173;48.718;9.274;2022-12-18T17:09:31;-2.70;98.10
364;DHT22;173;48.718;9.274;2022-12-18T17:12:06;-2.70;98.60
364;DHT22;173;48.718;9.274;2022-12-18T17:14:39;-2.80;98.80
364;DHT22;173;48.718;9.274;2022-12-18T17:17:11;-2.80;99.10
364;DHT22;173;48.718;9.274;2022-12-18T17:19:43;-2.90;99.20
364;DHT22;173;48.718;9.274;2022-12-18T17:22:18;-2.90;99.40
364;DHT22;173;48.718;9.274;2022-12-18T17:24:50;-3.00;99.50
364;DHT22;173;48.718;9.274;2022-12-18T17:27:24;-2.90;99.50
364;DHT22;173;48.718;9.274;2022-12-18T17:29:56;-2.90;99.50
364;DHT22;173;48.718;9.274;2022-12-18T17:32:28;-2.90;99.50
364;DHT22;173;48.718;9.274;2022-12-18T17:35:00;-2.90;99.50
364;DHT22;173;48.718;9.274;2022-12-18T17:37:34;-3.00;99.50
364;DHT22;173;48.718;9.274;2022-12-18T17:40:07;-3.10;99.50
364;DHT22;173;48.718;9.274;2022-12-18T17:42:39;-3.00;99.50
364;DHT22;173;48.718;9.274;2022-12-18T17:45:11;-3.10;99.50
364;DHT22;173;48.718;9.274;2022-12-18T17:47:43;-3.00;99.50
364;DHT22;173;48.718;9.274;2022-12-18T17:50:15;-3.00;99.50
364;DHT22;173;48.718;9.274;2022-12-18T17:52:49;-3.00;99.50
364;DHT22;173;48.718;9.274;2022-12-18T17:55:26;-3.10;99.50
364;DHT22;173;48.718;9.274;2022-12-18T17:57:59;-3.10;99.50
364;DHT22;173;48.718;9.274;2022-12-18T18:00:29;-3.20;99.50
364;DHT22;173;48.718;9.274;2022-12-18T18:03:01;-3.20;99.50
364;DHT22;173;48.718;9.274;2022-12-18T18:05:33;-3.20;99.50
364;DHT22;173;48.718;9.274;2022-12-18T18:08:07;-3.10;99.50
364;DHT22;173;48.718;9.274;2022-12-18T18:10:40;-3.20;99.50
364;DHT22;173;48.718;9.274;2022-12-18T18:13:25;-3.10;99.50
364;DHT22;173;48.718;9.274;2022-12-18T18:16:14;-3.20;99.50
364;DHT22;173;48.718;9.274;2022-12-18T18:18:46;-3.30;99.50
364;DHT22;173;48.718;9.274;2022-12-18T18:21:19;-3.20;99.50
364;DHT22;173;48.718;9.274;2022-12-18T18:23:53;-3.20;99.50
364;DHT22;173;48.718;9.274;2022-12-18T18:26:26;-3.20;99.50
364;DHT22;173;48.718;9.274;2022-12-18T18:29:01;-3.20;99.50
364;DHT22;173;48.718;9.274;2022-12-18T18:31:35;-3.20;99.50
364;DHT22;173;48.718;9.274;2022-12-18T18:34:05;-3.30;99.50
364;DHT22;173;48.718;9.274;2022-12-18T18:36:37;-3.20;99.50
364;DHT22;173;48.718;9.274;2022-12-18T18:39:11;-3.10;99.50
364;DHT22;173;48.718;9.274;2022-12-18T18:41:44;-3.10;99.50
364;DHT22;173;48.718;9.274;2022-12-18T18:44:18;-3.00;99.50
364;DHT22;173;48.718;9.274;2022-12-18T18:46:51;-3.10;99.50
364;DHT22;173;48.718;9.274;2022-12-18T18:49:28;-3.20;99.50
364;DHT22;173;48.718;9.274;2022-12-18T18:52:00;-3.20;99.50
364;DHT22;173;48.718;9.274;2022-12-18T18:54:34;-3.10;99.50
364;DHT22;173;48.718;9.274;2022-12-18T18:57:06;-3.10;99.50
364;DHT22;173;48.718;9.274;2022-12-18T18:59:38;-3.10;99.50
364;DHT22;173;48.718;9.274;2022-12-18T19:02:15;-3.00;99.50
364;DHT22;173;48.718;9.274;2022-12-18T19:04:47;-3.00;99.50
364;DHT22;173;48.718;9.274;2022-12-18T19:07:19;-2.90;99.50
364;DHT22;173;48.718;9.274;2022-12-18T19:09:53;-2.80;99.50
364;DHT22;173;48.718;9.274;2022-12-18T19:12:25;-2.80;99.50
364;DHT22;173;48.718;9.274;2022-12-18T19:15:15;-2.80;99.50